sensor_id;sensor_type;location;lat;lon;timestamp;P1;durP1;ratioP1;P2;durP2;ratioP2
19599;SDS011;9947;57.722;12.012;2022-12-10T00:01:20;5.37;;;4.23;;
19599;SDS011;9947;57.722;12.012;2022-12-10T00:03:48;5.73;;;4.43;;
19599;SDS011;9947;57.722;12.012;2022-12-10T00:06:16;4.73;;;4.13;;
19599;SDS011;9947;57.722;12.012;2022-12-10T00:08:44;6.53;;;4.23;;
19599;SDS011;9947;57.722;12.012;2022-12-10T00:11:12;6.60;;;4.33;;
19599;SDS011;9947;57.722;12.012;2022-12-10T00:13:40;7.20;;;3.67;;
19599;SDS011;9947;57.722;12.012;2022-12-10T00:16:08;4.63;;;3.93;;
19599;SDS011;9947;57.722;12.012;2022-12-10T00:18:39;5.40;;;4.23;;
19599;SDS011;9947;57.722;12.012;2022-12-10T00:21:08;8.07;;;4.23;;
19599;SDS011;9947;57.722;12.012;2022-12-10T00:23:36;6.83;;;4.30;;
19599;SDS011;9947;57.722;12.012;2022-12-10T00:26:05;6.20;;;4.10;;
19599;SDS011;9947;57.722;12.012;2022-12-10T00:28:33;6.77;;;4.90;;
19599;SDS011;9947;57.722;12.012;2022-12-10T00:31:03;6.37;;;4.23;;
19599;SDS011;9947;57.722;12.012;2022-12-10T00:33:31;6.17;;;5.07;;
19599;SDS011;9947;57.722;12.012;2022-12-10T00:36:01;7.90;;;4.77;;
19599;SDS011;9947;57.722;12.012;2022-12-10T00:38:30;6.57;;;4.33;;
19599;SDS011;9947;57.722;12.012;2022-12-10T00:40:57;5.73;;;4.43;;
19599;SDS011;9947;57.722;12.012;2022-12-10T00:43:24;4.80;;;4.30;;
19599;SDS011;9947;57.722;12.012;2022-12-10T00:45:52;4.20;;;3.77;;
19599;SDS011;9947;57.722;12.012;2022-12-10T00:48:19;5.90;;;4.00;;
19599;SDS011;9947;57.722;12.012;2022-12-10T00:50:54;6.93;;;4.57;;
19599;SDS011;9947;57.722;12.012;2022-12-10T00:53:22;8.90;;;5.07;;
19599;SDS011;9947;57.722;12.012;2022-12-10T00:55:51;6.53;;;4.67;;
19599;SDS011;9947;57.722;12.012;2022-12-10T00:58:19;5.87;;;4.53;;
19599;SDS011;9947;57.722;12.012;2022-12-10T01:00:46;8.97;;;4.67;;
19599;SDS011;9947;57.722;12.012;2022-12-10T01:03:14;11.33;;;4.80;;
19599;SDS011;9947;57.722;12.012;2022-12-10T01:05:41;9.20;;;5.00;;
19599;SDS011;9947;57.722;12.012;2022-12-10T01:08:08;6.80;;;5.60;;
19599;SDS011;9947;57.722;12.012;2022-12-10T01:10:35;6.93;;;5.80;;
19599;SDS011;9947;57.722;12.012;2022-12-10T01:13:03;9.07;;;6.10;;
19599;SDS011;9947;57.722;12.012;2022-12-10T01:15:30;7.07;;;5.27;;
19599;SDS011;9947;57.722;12.012;2022-12-10T01:17:57;6.87;;;5.37;;
19599;SDS011;9947;57.722;12.012;2022-12-10T01:20:24;8.37;;;5.50;;
19599;SDS011;9947;57.722;12.012;2022-12-10T01:22:51;10.47;;;6.57;;
19599;SDS011;9947;57.722;12.012;2022-12-10T01:25:18;9.73;;;5.87;;
19599;SDS011;9947;57.722;12.012;2022-12-10T01:27:45;7.83;;;6.27;;
19599;SDS011;9947;57.722;12.012;2022-12-10T01:30:14;8.43;;;6.07;;
19599;SDS011;9947;57.722;12.012;2022-12-10T01:32:40;8.57;;;5.80;;
19599;SDS011;9947;57.722;12.012;2022-12-10T01:35:10;9.83;;;6.47;;
19599;SDS011;9947;57.722;12.012;2022-12-10T01:37:37;7.90;;;6.27;;
19599;SDS011;9947;57.722;12.012;2022-12-10T01:40:05;8.43;;;6.00;;
19599;SDS011;9947;57.722;12.012;2022-12-10T01:42:32;8.53;;;6.47;;
19599;SDS011;9947;57.722;12.012;2022-12-10T01:45:05;7.50;;;5.70;;
19599;SDS011;9947;57.722;12.012;2022-12-10T01:47:36;7.67;;;5.80;;
19599;SDS011;9947;57.722;12.012;2022-12-10T01:50:04;9.73;;;6.30;;
19599;SDS011;9947;57.722;12.012;2022-12-10T01:52:35;6.97;;;5.57;;
19599;SDS011;9947;57.722;12.012;2022-12-10T01:55:06;7.37;;;5.67;;
19599;SDS011;9947;57.722;12.012;2022-12-10T01:57:55;7.90;;;6.00;;
19599;SDS011;9947;57.722;12.012;2022-12-10T02:00:22;9.50;;;5.90;;
19599;SDS011;9947;57.722;12.012;2022-12-10T02:02:54;9.47;;;6.33;;
19599;SDS011;9947;57.722;12.012;2022-12-10T02:05:25;7.07;;;5.60;;
19599;SDS011;9947;57.722;12.012;2022-12-10T02:07:59;7.70;;;5.10;;
19599;SDS011;9947;57.722;12.012;2022-12-10T02:10:36;8.93;;;5.90;;
19599;SDS011;9947;57.722;12.012;2022-12-10T02:13:11;8.03;;;5.77;;
19599;SDS011;9947;57.722;12.012;2022-12-10T02:15:45;10.50;;;6.37;;
19599;SDS011;9947;57.722;12.012;2022-12-10T02:18:19;9.47;;;6.10;;
19599;SDS011;9947;57.722;12.012;2022-12-10T02:20:51;7.57;;;5.57;;
19599;SDS011;9947;57.722;12.012;2022-12-10T02:23:22;7.03;;;5.20;;
19599;SDS011;9947;57.722;12.012;2022-12-10T02:25:56;5.17;;;4.67;;
19599;SDS011;9947;57.722;12.012;2022-12-10T02:28:31;6.07;;;4.93;;
19599;SDS011;9947;57.722;12.012;2022-12-10T02:31:05;8.00;;;5.57;;
19599;SDS011;9947;57.722;12.012;2022-12-10T02:33:33;7.03;;;5.50;;
19599;SDS011;9947;57.722;12.012;2022-12-10T02:36:03;9.07;;;6.20;;
19599;SDS011;9947;57.722;12.012;2022-12-10T02:38:34;8.47;;;5.57;;
19599;SDS011;9947;57.722;12.012;2022-12-10T02:41:07;9.83;;;5.77;;
19599;SDS011;9947;57.722;12.012;2022-12-10T02:43:42;8.17;;;5.67;;
19599;SDS011;9947;57.722;12.012;2022-12-10T02:46:12;8.70;;;5.97;;
19599;SDS011;9947;57.722;12.012;2022-12-10T02:48:41;8.27;;;6.03;;
19599;SDS011;9947;57.722;12.012;2022-12-10T02:51:08;9.07;;;6.13;;
19599;SDS011;9947;57.722;12.012;2022-12-10T02:53:40;7.50;;;5.83;;
19599;SDS011;9947;57.722;12.012;2022-12-10T02:56:11;7.30;;;5.67;;
19599;SDS011;9947;57.722;12.012;2022-12-10T02:58:47;8.30;;;5.97;;
19599;SDS011;9947;57.722;12.012;2022-12-10T03:01:25;9.00;;;5.63;;
19599;SDS011;9947;57.722;12.012;2022-12-10T03:04:04;7.17;;;5.20;;
19599;SDS011;9947;57.722;12.012;2022-12-10T03:06:38;9.23;;;6.33;;
19599;SDS011;9947;57.722;12.012;2022-12-10T03:09:10;8.90;;;7.50;;
19599;SDS011;9947;57.722;12.012;2022-12-10T03:11:42;8.97;;;6.27;;
19599;SDS011;9947;57.722;12.012;2022-12-10T03:14:12;7.83;;;5.97;;
19599;SDS011;9947;57.722;12.012;2022-12-10T03:16:43;7.53;;;5.90;;
19599;SDS011;9947;57.722;12.012;2022-12-10T03:19:15;7.43;;;6.27;;
19599;SDS011;9947;57.722;12.012;2022-12-10T03:21:45;9.67;;;6.50;;
19599;SDS011;9947;57.722;12.012;2022-12-10T03:24:15;7.97;;;5.60;;
19599;SDS011;9947;57.722;12.012;2022-12-10T03:26:43;8.63;;;6.23;;
19599;SDS011;9947;57.722;12.012;2022-12-10T03:29:15;8.07;;;6.13;;
19599;SDS011;9947;57.722;12.012;2022-12-10T03:31:49;7.47;;;6.03;;
19599;SDS011;9947;57.722;12.012;2022-12-10T03:34:19;8.03;;;5.73;;
19599;SDS011;9947;57.722;12.012;2022-12-10T03:36:48;8.50;;;6.03;;
19599;SDS011;9947;57.722;12.012;2022-12-10T03:39:16;7.63;;;6.20;;
19599;SDS011;9947;57.722;12.012;2022-12-10T03:41:45;10.67;;;6.27;;
19599;SDS011;9947;57.722;12.012;2022-12-10T03:44:12;8.70;;;6.47;;
19599;SDS011;9947;57.722;12.012;2022-12-10T03:46:39;8.37;;;6.57;;
19599;SDS011;9947;57.722;12.012;2022-12-10T03:49:07;9.60;;;6.33;;
19599;SDS011;9947;57.722;12.012;2022-12-10T03:51:34;8.43;;;5.70;;
19599;SDS011;9947;57.722;12.012;2022-12-10T03:54:01;8.10;;;6.27;;
19599;SDS011;9947;57.722;12.012;2022-12-10T03:56:30;7.63;;;5.67;;
19599;SDS011;9947;57.722;12.012;2022-12-10T03:58:56;7.20;;;5.47;;
19599;SDS011;9947;57.722;12.012;2022-12-10T04:01:23;7.57;;;5.80;;
19599;SDS011;9947;57.722;12.012;2022-12-10T04:03:50;9.23;;;5.97;;
19599;SDS011;9947;57.722;12.012;2022-12-10T04:06:19;8.07;;;6.20;;
19599;SDS011;9947;57.722;12.012;2022-12-10T04:08:46;9.27;;;5.67;;
19599;SDS011;9947;57.722;12.012;2022-12-10T04:11:18;8.67;;;6.20;;
19599;SDS011;9947;57.722;12.012;2022-12-10T04:13:45;9.17;;;6.40;;
19599;SDS011;9947;57.722;12.012;2022-12-10T04:16:30;8.30;;;6.30;;
19599;SDS011;9947;57.722;12.012;2022-12-10T04:19:00;8.87;;;6.07;;
19599;SDS011;9947;57.722;12.012;2022-12-10T04:21:32;8.63;;;6.17;;
19599;SDS011;9947;57.722;12.012;2022-12-10T04:24:18;9.53;;;5.90;;
19599;SDS011;9947;57.722;12.012;2022-12-10T04:27:02;7.77;;;6.23;;
19599;SDS011;9947;57.722;12.012;2022-12-10T04:29:32;8.57;;;5.90;;
19599;SDS011;9947;57.722;12.012;2022-12-10T04:31:59;8.40;;;5.53;;
19599;SDS011;9947;57.722;12.012;2022-12-10T04:34:26;9.47;;;6.40;;
19599;SDS011;9947;57.722;12.012;2022-12-10T04:36:54;9.70;;;6.57;;
19599;SDS011;9947;57.722;12.012;2022-12-10T04:39:21;7.10;;;5.80;;
19599;SDS011;9947;57.722;12.012;2022-12-10T04:41:48;8.17;;;6.10;;
19599;SDS011;9947;57.722;12.012;2022-12-10T04:44:16;8.13;;;6.30;;
19599;SDS011;9947;57.722;12.012;2022-12-10T04:46:43;8.10;;;6.40;;
19599;SDS011;9947;57.722;12.012;2022-12-10T04:49:10;9.07;;;6.63;;
19599;SDS011;9947;57.722;12.012;2022-12-10T04:51:38;12.13;;;8.00;;
19599;SDS011;9947;57.722;12.012;2022-12-10T04:54:06;11.80;;;7.50;;
19599;SDS011;9947;57.722;12.012;2022-12-10T04:56:34;9.20;;;6.60;;
19599;SDS011;9947;57.722;12.012;2022-12-10T04:59:02;12.77;;;6.47;;
19599;SDS011;9947;57.722;12.012;2022-12-10T05:01:30;11.07;;;6.17;;
19599;SDS011;9947;57.722;12.012;2022-12-10T05:03:58;8.43;;;6.70;;
19599;SDS011;9947;57.722;12.012;2022-12-10T05:06:26;8.73;;;6.53;;
19599;SDS011;9947;57.722;12.012;2022-12-10T05:08:54;7.73;;;6.27;;
19599;SDS011;9947;57.722;12.012;2022-12-10T05:11:23;11.83;;;7.30;;
19599;SDS011;9947;57.722;12.012;2022-12-10T05:13:52;10.30;;;6.87;;
19599;SDS011;9947;57.722;12.012;2022-12-10T05:16:20;9.77;;;7.20;;
19599;SDS011;9947;57.722;12.012;2022-12-10T05:18:48;9.23;;;6.93;;
19599;SDS011;9947;57.722;12.012;2022-12-10T05:21:17;10.70;;;6.43;;
19599;SDS011;9947;57.722;12.012;2022-12-10T05:23:46;9.20;;;6.50;;
19599;SDS011;9947;57.722;12.012;2022-12-10T05:26:14;9.13;;;7.00;;
19599;SDS011;9947;57.722;12.012;2022-12-10T05:28:45;9.40;;;7.03;;
19599;SDS011;9947;57.722;12.012;2022-12-10T05:31:13;10.23;;;7.40;;
19599;SDS011;9947;57.722;12.012;2022-12-10T05:33:42;11.70;;;7.30;;
19599;SDS011;9947;57.722;12.012;2022-12-10T05:36:10;10.83;;;7.17;;
19599;SDS011;9947;57.722;12.012;2022-12-10T05:38:39;13.30;;;7.77;;
19599;SDS011;9947;57.722;12.012;2022-12-10T05:41:07;9.93;;;7.53;;
19599;SDS011;9947;57.722;12.012;2022-12-10T05:43:37;12.77;;;8.07;;
19599;SDS011;9947;57.722;12.012;2022-12-10T05:46:06;10.13;;;7.30;;
19599;SDS011;9947;57.722;12.012;2022-12-10T05:48:35;9.60;;;6.93;;
19599;SDS011;9947;57.722;12.012;2022-12-10T05:51:03;11.40;;;7.20;;
19599;SDS011;9947;57.722;12.012;2022-12-10T05:53:31;10.27;;;6.63;;
19599;SDS011;9947;57.722;12.012;2022-12-10T05:56:01;10.73;;;7.00;;
19599;SDS011;9947;57.722;12.012;2022-12-10T05:58:29;8.70;;;6.47;;
19599;SDS011;9947;57.722;12.012;2022-12-10T06:00:56;12.37;;;7.30;;
19599;SDS011;9947;57.722;12.012;2022-12-10T06:03:26;11.23;;;7.30;;
19599;SDS011;9947;57.722;12.012;2022-12-10T06:05:53;8.67;;;6.33;;
19599;SDS011;9947;57.722;12.012;2022-12-10T06:08:23;10.07;;;6.63;;
19599;SDS011;9947;57.722;12.012;2022-12-10T06:10:51;8.03;;;5.97;;
19599;SDS011;9947;57.722;12.012;2022-12-10T06:13:19;10.00;;;6.43;;
19599;SDS011;9947;57.722;12.012;2022-12-10T06:15:46;8.10;;;6.03;;
19599;SDS011;9947;57.722;12.012;2022-12-10T06:18:13;11.93;;;6.23;;
19599;SDS011;9947;57.722;12.012;2022-12-10T06:20:41;11.33;;;7.30;;
19599;SDS011;9947;57.722;12.012;2022-12-10T06:23:08;9.03;;;6.50;;
19599;SDS011;9947;57.722;12.012;2022-12-10T06:25:37;8.83;;;6.03;;
19599;SDS011;9947;57.722;12.012;2022-12-10T06:28:04;10.30;;;6.70;;
19599;SDS011;9947;57.722;12.012;2022-12-10T06:30:31;7.90;;;6.40;;
19599;SDS011;9947;57.722;12.012;2022-12-10T06:32:58;11.60;;;6.43;;
19599;SDS011;9947;57.722;12.012;2022-12-10T06:35:25;9.97;;;6.03;;
19599;SDS011;9947;57.722;12.012;2022-12-10T06:37:54;8.97;;;6.40;;
19599;SDS011;9947;57.722;12.012;2022-12-10T06:40:21;8.83;;;6.60;;
19599;SDS011;9947;57.722;12.012;2022-12-10T06:42:49;9.27;;;6.70;;
19599;SDS011;9947;57.722;12.012;2022-12-10T06:45:17;11.80;;;6.43;;
19599;SDS011;9947;57.722;12.012;2022-12-10T06:47:44;8.73;;;6.53;;
19599;SDS011;9947;57.722;12.012;2022-12-10T06:50:11;10.07;;;7.10;;
19599;SDS011;9947;57.722;12.012;2022-12-10T06:52:38;11.27;;;6.33;;
19599;SDS011;9947;57.722;12.012;2022-12-10T06:55:07;9.33;;;6.50;;
19599;SDS011;9947;57.722;12.012;2022-12-10T06:57:34;10.70;;;6.60;;
19599;SDS011;9947;57.722;12.012;2022-12-10T07:00:02;7.93;;;6.20;;
19599;SDS011;9947;57.722;12.012;2022-12-10T07:02:30;10.90;;;6.40;;
19599;SDS011;9947;57.722;12.012;2022-12-10T07:04:57;8.47;;;6.37;;
19599;SDS011;9947;57.722;12.012;2022-12-10T07:07:24;8.70;;;6.40;;
19599;SDS011;9947;57.722;12.012;2022-12-10T07:09:51;10.43;;;7.10;;
19599;SDS011;9947;57.722;12.012;2022-12-10T07:12:19;8.53;;;6.90;;
19599;SDS011;9947;57.722;12.012;2022-12-10T07:14:46;8.27;;;6.43;;
19599;SDS011;9947;57.722;12.012;2022-12-10T07:17:13;9.80;;;6.43;;
19599;SDS011;9947;57.722;12.012;2022-12-10T07:19:40;11.57;;;7.37;;
19599;SDS011;9947;57.722;12.012;2022-12-10T07:22:07;11.47;;;7.57;;
19599;SDS011;9947;57.722;12.012;2022-12-10T07:24:34;10.47;;;7.93;;
19599;SDS011;9947;57.722;12.012;2022-12-10T07:27:03;9.50;;;7.23;;
19599;SDS011;9947;57.722;12.012;2022-12-10T07:29:32;11.80;;;7.73;;
19599;SDS011;9947;57.722;12.012;2022-12-10T07:32:01;8.63;;;6.80;;
19599;SDS011;9947;57.722;12.012;2022-12-10T07:34:31;11.37;;;7.07;;
19599;SDS011;9947;57.722;12.012;2022-12-10T07:36:58;12.17;;;7.63;;
19599;SDS011;9947;57.722;12.012;2022-12-10T07:39:25;12.67;;;8.00;;
19599;SDS011;9947;57.722;12.012;2022-12-10T07:41:52;9.97;;;7.23;;
19599;SDS011;9947;57.722;12.012;2022-12-10T07:44:19;12.27;;;7.67;;
19599;SDS011;9947;57.722;12.012;2022-12-10T07:46:49;11.47;;;7.97;;
19599;SDS011;9947;57.722;12.012;2022-12-10T07:49:16;14.37;;;8.20;;
19599;SDS011;9947;57.722;12.012;2022-12-10T07:51:45;11.57;;;7.97;;
19599;SDS011;9947;57.722;12.012;2022-12-10T07:54:14;10.43;;;7.20;;
19599;SDS011;9947;57.722;12.012;2022-12-10T07:56:41;11.60;;;7.57;;
19599;SDS011;9947;57.722;12.012;2022-12-10T07:59:08;11.37;;;7.27;;
19599;SDS011;9947;57.722;12.012;2022-12-10T08:01:36;11.10;;;7.80;;
19599;SDS011;9947;57.722;12.012;2022-12-10T08:04:04;12.13;;;8.07;;
19599;SDS011;9947;57.722;12.012;2022-12-10T08:06:31;13.70;;;8.13;;
19599;SDS011;9947;57.722;12.012;2022-12-10T08:08:58;12.60;;;7.40;;
19599;SDS011;9947;57.722;12.012;2022-12-10T08:11:28;9.87;;;7.37;;
19599;SDS011;9947;57.722;12.012;2022-12-10T08:13:55;10.53;;;7.50;;
19599;SDS011;9947;57.722;12.012;2022-12-10T08:16:23;11.37;;;7.30;;
19599;SDS011;9947;57.722;12.012;2022-12-10T08:18:51;11.27;;;7.30;;
19599;SDS011;9947;57.722;12.012;2022-12-10T08:21:25;13.10;;;7.90;;
19599;SDS011;9947;57.722;12.012;2022-12-10T08:23:53;11.50;;;7.97;;
19599;SDS011;9947;57.722;12.012;2022-12-10T08:26:22;11.07;;;8.43;;
19599;SDS011;9947;57.722;12.012;2022-12-10T08:28:50;12.07;;;7.70;;
19599;SDS011;9947;57.722;12.012;2022-12-10T08:31:19;12.60;;;8.43;;
19599;SDS011;9947;57.722;12.012;2022-12-10T08:33:47;11.57;;;7.77;;
19599;SDS011;9947;57.722;12.012;2022-12-10T08:36:15;9.47;;;6.93;;
19599;SDS011;9947;57.722;12.012;2022-12-10T08:38:45;10.37;;;7.00;;
19599;SDS011;9947;57.722;12.012;2022-12-10T08:41:13;13.30;;;8.17;;
19599;SDS011;9947;57.722;12.012;2022-12-10T08:43:42;11.03;;;7.70;;
19599;SDS011;9947;57.722;12.012;2022-12-10T08:46:09;11.87;;;8.03;;
19599;SDS011;9947;57.722;12.012;2022-12-10T08:48:37;13.93;;;8.20;;
19599;SDS011;9947;57.722;12.012;2022-12-10T08:51:05;11.73;;;7.40;;
19599;SDS011;9947;57.722;12.012;2022-12-10T08:53:34;12.23;;;7.60;;
19599;SDS011;9947;57.722;12.012;2022-12-10T08:56:03;10.80;;;7.83;;
19599;SDS011;9947;57.722;12.012;2022-12-10T08:58:30;12.77;;;8.23;;
19599;SDS011;9947;57.722;12.012;2022-12-10T09:00:58;14.33;;;8.87;;
19599;SDS011;9947;57.722;12.012;2022-12-10T09:03:26;13.80;;;8.67;;
19599;SDS011;9947;57.722;12.012;2022-12-10T09:05:53;14.80;;;8.80;;
19599;SDS011;9947;57.722;12.012;2022-12-10T09:08:20;15.13;;;8.87;;
19599;SDS011;9947;57.722;12.012;2022-12-10T09:10:47;15.87;;;8.60;;
19599;SDS011;9947;57.722;12.012;2022-12-10T09:13:15;13.43;;;8.50;;
19599;SDS011;9947;57.722;12.012;2022-12-10T09:15:48;11.87;;;8.23;;
19599;SDS011;9947;57.722;12.012;2022-12-10T09:18:16;14.10;;;8.57;;
19599;SDS011;9947;57.722;12.012;2022-12-10T09:20:43;14.73;;;8.30;;
19599;SDS011;9947;57.722;12.012;2022-12-10T09:23:10;12.87;;;8.37;;
19599;SDS011;9947;57.722;12.012;2022-12-10T09:25:37;12.43;;;8.63;;
19599;SDS011;9947;57.722;12.012;2022-12-10T09:28:04;15.53;;;8.57;;
19599;SDS011;9947;57.722;12.012;2022-12-10T09:30:33;12.83;;;8.57;;
19599;SDS011;9947;57.722;12.012;2022-12-10T09:32:59;13.60;;;8.37;;
19599;SDS011;9947;57.722;12.012;2022-12-10T09:35:28;13.00;;;8.03;;
19599;SDS011;9947;57.722;12.012;2022-12-10T09:37:55;11.00;;;7.87;;
19599;SDS011;9947;57.722;12.012;2022-12-10T09:40:24;14.17;;;8.13;;
19599;SDS011;9947;57.722;12.012;2022-12-10T09:43:00;14.47;;;8.17;;
19599;SDS011;9947;57.722;12.012;2022-12-10T09:45:39;12.80;;;7.77;;
19599;SDS011;9947;57.722;12.012;2022-12-10T09:48:16;12.73;;;7.93;;
19599;SDS011;9947;57.722;12.012;2022-12-10T09:50:50;10.80;;;7.33;;
19599;SDS011;9947;57.722;12.012;2022-12-10T09:53:22;9.77;;;6.97;;
19599;SDS011;9947;57.722;12.012;2022-12-10T09:55:53;10.90;;;7.40;;
19599;SDS011;9947;57.722;12.012;2022-12-10T09:58:20;12.43;;;7.30;;
19599;SDS011;9947;57.722;12.012;2022-12-10T10:00:51;12.67;;;7.70;;
19599;SDS011;9947;57.722;12.012;2022-12-10T10:03:24;13.50;;;7.77;;
19599;SDS011;9947;57.722;12.012;2022-12-10T10:05:52;15.47;;;8.23;;
19599;SDS011;9947;57.722;12.012;2022-12-10T10:08:27;14.90;;;8.80;;
19599;SDS011;9947;57.722;12.012;2022-12-10T10:10:58;11.57;;;8.30;;
19599;SDS011;9947;57.722;12.012;2022-12-10T10:13:27;15.87;;;9.13;;
19599;SDS011;9947;57.722;12.012;2022-12-10T10:16:07;14.67;;;8.40;;
19599;SDS011;9947;57.722;12.012;2022-12-10T10:18:43;12.07;;;7.87;;
19599;SDS011;9947;57.722;12.012;2022-12-10T10:21:16;12.57;;;7.67;;
19599;SDS011;9947;57.722;12.012;2022-12-10T10:23:47;11.87;;;7.43;;
19599;SDS011;9947;57.722;12.012;2022-12-10T10:26:14;12.03;;;7.40;;
19599;SDS011;9947;57.722;12.012;2022-12-10T10:28:41;13.57;;;8.27;;
19599;SDS011;9947;57.722;12.012;2022-12-10T10:31:18;12.80;;;8.53;;
19599;SDS011;9947;57.722;12.012;2022-12-10T10:33:48;13.13;;;7.63;;
19599;SDS011;9947;57.722;12.012;2022-12-10T10:36:22;13.83;;;8.13;;
19599;SDS011;9947;57.722;12.012;2022-12-10T10:38:50;12.63;;;7.53;;
19599;SDS011;9947;57.722;12.012;2022-12-10T10:41:18;14.87;;;9.17;;
19599;SDS011;9947;57.722;12.012;2022-12-10T10:43:45;11.20;;;7.73;;
19599;SDS011;9947;57.722;12.012;2022-12-10T10:46:26;10.83;;;7.17;;
19599;SDS011;9947;57.722;12.012;2022-12-10T10:48:54;14.03;;;7.93;;
19599;SDS011;9947;57.722;12.012;2022-12-10T10:51:41;8.40;;;6.73;;
19599;SDS011;9947;57.722;12.012;2022-12-10T10:54:09;9.13;;;6.60;;
19599;SDS011;9947;57.722;12.012;2022-12-10T10:56:38;8.23;;;6.10;;
19599;SDS011;9947;57.722;12.012;2022-12-10T10:59:14;8.67;;;6.43;;
19599;SDS011;9947;57.722;12.012;2022-12-10T11:01:58;8.67;;;6.67;;
19599;SDS011;9947;57.722;12.012;2022-12-10T11:04:31;9.90;;;6.87;;
19599;SDS011;9947;57.722;12.012;2022-12-10T11:07:04;11.00;;;6.60;;
19599;SDS011;9947;57.722;12.012;2022-12-10T11:09:39;8.60;;;5.83;;
19599;SDS011;9947;57.722;12.012;2022-12-10T11:12:21;10.37;;;6.53;;
19599;SDS011;9947;57.722;12.012;2022-12-10T11:14:54;10.70;;;6.87;;
19599;SDS011;9947;57.722;12.012;2022-12-10T11:17:24;8.47;;;6.50;;
19599;SDS011;9947;57.722;12.012;2022-12-10T11:19:53;9.50;;;7.40;;
19599;SDS011;9947;57.722;12.012;2022-12-10T11:22:24;8.67;;;6.63;;
19599;SDS011;9947;57.722;12.012;2022-12-10T11:24:52;8.60;;;5.80;;
19599;SDS011;9947;57.722;12.012;2022-12-10T11:27:24;7.17;;;5.53;;
19599;SDS011;9947;57.722;12.012;2022-12-10T11:30:04;10.00;;;6.10;;
19599;SDS011;9947;57.722;12.012;2022-12-10T11:32:41;8.97;;;5.47;;
19599;SDS011;9947;57.722;12.012;2022-12-10T11:35:21;9.47;;;5.93;;
19599;SDS011;9947;57.722;12.012;2022-12-10T11:38:04;10.07;;;6.60;;
19599;SDS011;9947;57.722;12.012;2022-12-10T11:40:38;9.10;;;6.03;;
19599;SDS011;9947;57.722;12.012;2022-12-10T11:43:24;11.07;;;6.40;;
19599;SDS011;9947;57.722;12.012;2022-12-10T11:46:04;9.13;;;5.97;;
19599;SDS011;9947;57.722;12.012;2022-12-10T11:51:34;9.57;;;6.07;;
19599;SDS011;9947;57.722;12.012;2022-12-10T11:54:14;13.83;;;6.87;;
19599;SDS011;9947;57.722;12.012;2022-12-10T11:56:52;8.97;;;6.07;;
19599;SDS011;9947;57.722;12.012;2022-12-10T11:59:28;9.47;;;5.70;;
19599;SDS011;9947;57.722;12.012;2022-12-10T12:02:09;8.27;;;5.63;;
19599;SDS011;9947;57.722;12.012;2022-12-10T12:05:06;8.27;;;6.10;;
19599;SDS011;9947;57.722;12.012;2022-12-10T12:07:45;11.50;;;6.47;;
19599;SDS011;9947;57.722;12.012;2022-12-10T12:10:32;9.47;;;6.43;;
19599;SDS011;9947;57.722;12.012;2022-12-10T12:13:11;8.73;;;6.67;;
19599;SDS011;9947;57.722;12.012;2022-12-10T12:15:42;10.43;;;6.50;;
19599;SDS011;9947;57.722;12.012;2022-12-10T12:18:14;11.50;;;6.47;;
19599;SDS011;9947;57.722;12.012;2022-12-10T12:20:45;7.27;;;5.73;;
19599;SDS011;9947;57.722;12.012;2022-12-10T12:23:17;8.83;;;6.13;;
19599;SDS011;9947;57.722;12.012;2022-12-10T12:25:51;9.77;;;6.10;;
19599;SDS011;9947;57.722;12.012;2022-12-10T12:28:24;12.30;;;7.00;;
19599;SDS011;9947;57.722;12.012;2022-12-10T12:30:58;11.77;;;7.07;;
19599;SDS011;9947;57.722;12.012;2022-12-10T12:33:29;10.90;;;7.00;;
19599;SDS011;9947;57.722;12.012;2022-12-10T12:36:00;10.87;;;6.73;;
19599;SDS011;9947;57.722;12.012;2022-12-10T12:38:37;9.63;;;6.43;;
19599;SDS011;9947;57.722;12.012;2022-12-10T12:41:16;7.20;;;5.90;;
19599;SDS011;9947;57.722;12.012;2022-12-10T12:43:48;8.73;;;6.27;;
19599;SDS011;9947;57.722;12.012;2022-12-10T12:46:20;10.37;;;6.50;;
19599;SDS011;9947;57.722;12.012;2022-12-10T12:48:54;12.07;;;6.77;;
19599;SDS011;9947;57.722;12.012;2022-12-10T12:51:26;12.40;;;6.30;;
19599;SDS011;9947;57.722;12.012;2022-12-10T12:53:57;9.90;;;6.40;;
19599;SDS011;9947;57.722;12.012;2022-12-10T12:56:27;12.57;;;6.83;;
19599;SDS011;9947;57.722;12.012;2022-12-10T12:59:10;9.40;;;6.20;;
19599;SDS011;9947;57.722;12.012;2022-12-10T13:01:49;6.93;;;5.87;;
19599;SDS011;9947;57.722;12.012;2022-12-10T13:04:20;8.33;;;5.73;;
19599;SDS011;9947;57.722;12.012;2022-12-10T13:09:43;7.90;;;6.50;;
19599;SDS011;9947;57.722;12.012;2022-12-10T13:12:25;9.73;;;6.07;;
19599;SDS011;9947;57.722;12.012;2022-12-10T13:15:00;9.87;;;6.93;;
19599;SDS011;9947;57.722;12.012;2022-12-10T13:17:39;10.20;;;6.23;;
19599;SDS011;9947;57.722;12.012;2022-12-10T13:20:29;11.17;;;6.40;;
19599;SDS011;9947;57.722;12.012;2022-12-10T13:22:58;10.80;;;6.00;;
19599;SDS011;9947;57.722;12.012;2022-12-10T13:28:27;7.10;;;5.37;;
19599;SDS011;9947;57.722;12.012;2022-12-10T13:31:20;7.67;;;6.13;;
19599;SDS011;9947;57.722;12.012;2022-12-10T13:40:18;8.23;;;5.97;;
19599;SDS011;9947;57.722;12.012;2022-12-10T13:43:25;7.97;;;5.73;;
19599;SDS011;9947;57.722;12.012;2022-12-10T13:46:23;9.63;;;6.27;;
19599;SDS011;9947;57.722;12.012;2022-12-10T13:48:52;10.87;;;6.60;;
19599;SDS011;9947;57.722;12.012;2022-12-10T13:51:23;14.43;;;6.87;;
19599;SDS011;9947;57.722;12.012;2022-12-10T13:54:04;10.90;;;6.27;;
19599;SDS011;9947;57.722;12.012;2022-12-10T13:56:45;11.17;;;6.83;;
19599;SDS011;9947;57.722;12.012;2022-12-10T13:59:27;13.87;;;6.77;;
19599;SDS011;9947;57.722;12.012;2022-12-10T14:02:11;10.93;;;7.13;;
19599;SDS011;9947;57.722;12.012;2022-12-10T14:05:04;11.17;;;5.90;;
19599;SDS011;9947;57.722;12.012;2022-12-10T14:07:50;10.53;;;6.63;;
19599;SDS011;9947;57.722;12.012;2022-12-10T14:10:21;11.77;;;7.20;;
19599;SDS011;9947;57.722;12.012;2022-12-10T14:12:53;10.47;;;6.97;;
19599;SDS011;9947;57.722;12.012;2022-12-10T14:15:23;9.70;;;6.70;;
19599;SDS011;9947;57.722;12.012;2022-12-10T14:17:53;10.40;;;6.73;;
19599;SDS011;9947;57.722;12.012;2022-12-10T14:20:26;14.60;;;7.10;;
19599;SDS011;9947;57.722;12.012;2022-12-10T14:22:57;16.10;;;8.30;;
19599;SDS011;9947;57.722;12.012;2022-12-10T14:25:43;13.17;;;7.13;;
19599;SDS011;9947;57.722;12.012;2022-12-10T14:28:12;15.10;;;7.77;;
19599;SDS011;9947;57.722;12.012;2022-12-10T14:30:43;17.67;;;7.60;;
19599;SDS011;9947;57.722;12.012;2022-12-10T14:33:15;11.00;;;7.47;;
19599;SDS011;9947;57.722;12.012;2022-12-10T14:35:46;19.27;;;8.77;;
19599;SDS011;9947;57.722;12.012;2022-12-10T14:38:17;14.70;;;7.97;;
19599;SDS011;9947;57.722;12.012;2022-12-10T14:40:46;12.00;;;7.57;;
19599;SDS011;9947;57.722;12.012;2022-12-10T14:43:15;14.27;;;7.77;;
19599;SDS011;9947;57.722;12.012;2022-12-10T14:45:47;15.90;;;7.77;;
19599;SDS011;9947;57.722;12.012;2022-12-10T14:48:17;11.90;;;7.10;;
19599;SDS011;9947;57.722;12.012;2022-12-10T14:50:47;12.50;;;7.17;;
19599;SDS011;9947;57.722;12.012;2022-12-10T14:53:16;10.53;;;6.87;;
19599;SDS011;9947;57.722;12.012;2022-12-10T14:55:45;12.40;;;7.27;;
19599;SDS011;9947;57.722;12.012;2022-12-10T14:58:16;9.93;;;7.53;;
19599;SDS011;9947;57.722;12.012;2022-12-10T15:00:54;12.33;;;7.10;;
19599;SDS011;9947;57.722;12.012;2022-12-10T15:03:26;15.03;;;7.80;;
19599;SDS011;9947;57.722;12.012;2022-12-10T15:05:55;12.10;;;7.70;;
19599;SDS011;9947;57.722;12.012;2022-12-10T15:08:24;13.87;;;7.70;;
19599;SDS011;9947;57.722;12.012;2022-12-10T15:10:54;17.10;;;8.60;;
19599;SDS011;9947;57.722;12.012;2022-12-10T15:13:29;20.55;;;11.70;;
19599;SDS011;9947;57.722;12.012;2022-12-10T15:16:05;17.53;;;9.93;;
19599;SDS011;9947;57.722;12.012;2022-12-10T15:18:41;17.63;;;9.17;;